sensor_id;sensor_type;location;lat;lon;timestamp;P1;durP1;ratioP1;P2;durP2;ratioP2
50769;SDS011;36740;48.698;11.472;2024-03-17T00:01:57;11.05;;;6.93;;
50769;SDS011;36740;48.698;11.472;2024-03-17T00:04:43;10.75;;;5.88;;
50769;SDS011;36740;48.698;11.472;2024-03-17T00:07:29;11.55;;;6.05;;
50769;SDS011;36740;48.698;11.472;2024-03-17T00:10:14;12.50;;;5.88;;
50769;SDS011;36740;48.698;11.472;2024-03-17T00:13:00;9.27;;;5.90;;
50769;SDS011;36740;48.698;11.472;2024-03-17T00:15:46;9.55;;;6.00;;
50769;SDS011;36740;48.698;11.472;2024-03-17T00:18:33;11.88;;;5.85;;
50769;SDS011;36740;48.698;11.472;2024-03-17T00:21:19;7.88;;;5.35;;
50769;SDS011;36740;48.698;11.472;2024-03-17T00:24:05;8.35;;;6.00;;
50769;SDS011;36740;48.698;11.472;2024-03-17T00:26:51;7.00;;;4.68;;
50769;SDS011;36740;48.698;11.472;2024-03-17T00:29:37;8.90;;;4.63;;
50769;SDS011;36740;48.698;11.472;2024-03-17T00:32:23;6.15;;;4.72;;
50769;SDS011;36740;48.698;11.472;2024-03-17T00:35:09;7.35;;;4.50;;
50769;SDS011;36740;48.698;11.472;2024-03-17T00:37:59;7.63;;;5.13;;
50769;SDS011;36740;48.698;11.472;2024-03-17T00:40:45;9.55;;;6.07;;
50769;SDS011;36740;48.698;11.472;2024-03-17T00:43:32;9.27;;;5.00;;
50769;SDS011;36740;48.698;11.472;2024-03-17T00:46:20;8.23;;;5.35;;
50769;SDS011;36740;48.698;11.472;2024-03-17T00:49:06;8.93;;;5.05;;
50769;SDS011;36740;48.698;11.472;2024-03-17T00:51:52;7.78;;;5.75;;
50769;SDS011;36740;48.698;11.472;2024-03-17T00:54:37;7.90;;;5.53;;
50769;SDS011;36740;48.698;11.472;2024-03-17T00:57:23;12.10;;;5.63;;
50769;SDS011;36740;48.698;11.472;2024-03-17T01:00:09;7.57;;;4.35;;
50769;SDS011;36740;48.698;11.472;2024-03-17T01:02:58;8.00;;;5.60;;
50769;SDS011;36740;48.698;11.472;2024-03-17T01:05:44;7.45;;;5.60;;
50769;SDS011;36740;48.698;11.472;2024-03-17T01:08:32;6.93;;;4.40;;
50769;SDS011;36740;48.698;11.472;2024-03-17T01:11:18;6.47;;;4.60;;
50769;SDS011;36740;48.698;11.472;2024-03-17T01:14:04;6.43;;;3.88;;
50769;SDS011;36740;48.698;11.472;2024-03-17T01:16:50;7.93;;;5.55;;
50769;SDS011;36740;48.698;11.472;2024-03-17T01:19:37;6.45;;;4.57;;
50769;SDS011;36740;48.698;11.472;2024-03-17T01:22:23;8.27;;;4.18;;
50769;SDS011;36740;48.698;11.472;2024-03-17T01:25:09;6.07;;;4.45;;
50769;SDS011;36740;48.698;11.472;2024-03-17T01:27:55;8.10;;;4.85;;
50769;SDS011;36740;48.698;11.472;2024-03-17T01:30:41;9.20;;;5.55;;
50769;SDS011;36740;48.698;11.472;2024-03-17T01:33:27;6.50;;;4.93;;
50769;SDS011;36740;48.698;11.472;2024-03-17T01:36:13;6.88;;;4.82;;
50769;SDS011;36740;48.698;11.472;2024-03-17T01:38:59;9.02;;;4.65;;
50769;SDS011;36740;48.698;11.472;2024-03-17T01:41:45;10.05;;;4.75;;
50769;SDS011;36740;48.698;11.472;2024-03-17T01:44:31;7.40;;;4.28;;
50769;SDS011;36740;48.698;11.472;2024-03-17T01:47:20;9.70;;;6.03;;
50769;SDS011;36740;48.698;11.472;2024-03-17T01:50:06;10.63;;;5.53;;
50769;SDS011;36740;48.698;11.472;2024-03-17T01:52:58;14.80;;;9.63;;
50769;SDS011;36740;48.698;11.472;2024-03-17T01:55:47;10.95;;;8.80;;
50769;SDS011;36740;48.698;11.472;2024-03-17T01:58:33;8.52;;;5.75;;
50769;SDS011;36740;48.698;11.472;2024-03-17T02:01:20;8.38;;;5.30;;
50769;SDS011;36740;48.698;11.472;2024-03-17T02:04:06;8.60;;;5.72;;
50769;SDS011;36740;48.698;11.472;2024-03-17T02:06:52;10.55;;;6.32;;
50769;SDS011;36740;48.698;11.472;2024-03-17T02:09:37;9.95;;;5.22;;
50769;SDS011;36740;48.698;11.472;2024-03-17T02:12:23;9.23;;;5.90;;
50769;SDS011;36740;48.698;11.472;2024-03-17T02:15:10;6.50;;;4.93;;
50769;SDS011;36740;48.698;11.472;2024-03-17T02:17:55;6.70;;;5.18;;
50769;SDS011;36740;48.698;11.472;2024-03-17T02:20:41;8.07;;;5.10;;
50769;SDS011;36740;48.698;11.472;2024-03-17T02:23:44;9.88;;;6.38;;
50769;SDS011;36740;48.698;11.472;2024-03-17T02:26:30;11.55;;;6.68;;
50769;SDS011;36740;48.698;11.472;2024-03-17T02:29:16;8.13;;;5.18;;
50769;SDS011;36740;48.698;11.472;2024-03-17T02:32:02;13.57;;;6.40;;
50769;SDS011;36740;48.698;11.472;2024-03-17T02:34:52;7.65;;;5.72;;
50769;SDS011;36740;48.698;11.472;2024-03-17T02:37:38;8.50;;;6.65;;
50769;SDS011;36740;48.698;11.472;2024-03-17T02:40:23;8.25;;;5.35;;
50769;SDS011;36740;48.698;11.472;2024-03-17T02:43:09;10.70;;;6.85;;
50769;SDS011;36740;48.698;11.472;2024-03-17T02:45:55;9.30;;;5.82;;
50769;SDS011;36740;48.698;11.472;2024-03-17T02:48:41;8.38;;;5.07;;
50769;SDS011;36740;48.698;11.472;2024-03-17T02:51:32;9.65;;;6.53;;
50769;SDS011;36740;48.698;11.472;2024-03-17T02:54:18;11.07;;;5.32;;
50769;SDS011;36740;48.698;11.472;2024-03-17T02:57:04;8.30;;;6.40;;
50769;SDS011;36740;48.698;11.472;2024-03-17T02:59:51;8.70;;;6.53;;
50769;SDS011;36740;48.698;11.472;2024-03-17T03:02:37;10.77;;;7.47;;
50769;SDS011;36740;48.698;11.472;2024-03-17T03:05:23;7.75;;;5.70;;
50769;SDS011;36740;48.698;11.472;2024-03-17T03:08:08;9.32;;;6.45;;
50769;SDS011;36740;48.698;11.472;2024-03-17T03:10:55;11.27;;;6.57;;
50769;SDS011;36740;48.698;11.472;2024-03-17T03:13:42;7.88;;;5.95;;
50769;SDS011;36740;48.698;11.472;2024-03-17T03:16:28;8.90;;;6.30;;
50769;SDS011;36740;48.698;11.472;2024-03-17T03:19:14;8.77;;;6.35;;
50769;SDS011;36740;48.698;11.472;2024-03-17T03:22:00;11.82;;;6.78;;
50769;SDS011;36740;48.698;11.472;2024-03-17T03:24:45;9.77;;;6.50;;
50769;SDS011;36740;48.698;11.472;2024-03-17T03:27:32;11.68;;;8.05;;
50769;SDS011;36740;48.698;11.472;2024-03-17T03:30:19;13.00;;;8.50;;
50769;SDS011;36740;48.698;11.472;2024-03-17T03:33:06;16.15;;;8.27;;
50769;SDS011;36740;48.698;11.472;2024-03-17T03:35:52;15.93;;;13.05;;
50769;SDS011;36740;48.698;11.472;2024-03-17T03:38:38;12.35;;;8.55;;
50769;SDS011;36740;48.698;11.472;2024-03-17T03:41:25;12.32;;;7.35;;
50769;SDS011;36740;48.698;11.472;2024-03-17T03:44:10;7.70;;;6.88;;
50769;SDS011;36740;48.698;11.472;2024-03-17T03:46:56;9.50;;;7.57;;
50769;SDS011;36740;48.698;11.472;2024-03-17T03:49:43;8.65;;;5.85;;
50769;SDS011;36740;48.698;11.472;2024-03-17T03:52:30;7.82;;;5.55;;
50769;SDS011;36740;48.698;11.472;2024-03-17T03:55:16;11.40;;;7.00;;
50769;SDS011;36740;48.698;11.472;2024-03-17T03:58:02;8.65;;;5.25;;
50769;SDS011;36740;48.698;11.472;2024-03-17T04:00:49;7.95;;;4.40;;
50769;SDS011;36740;48.698;11.472;2024-03-17T04:03:34;8.68;;;7.07;;
50769;SDS011;36740;48.698;11.472;2024-03-17T04:06:21;7.43;;;5.00;;
50769;SDS011;36740;48.698;11.472;2024-03-17T04:09:06;8.20;;;6.05;;
50769;SDS011;36740;48.698;11.472;2024-03-17T04:11:54;8.43;;;5.22;;
50769;SDS011;36740;48.698;11.472;2024-03-17T04:14:40;6.80;;;4.60;;
50769;SDS011;36740;48.698;11.472;2024-03-17T04:17:26;7.85;;;5.40;;
50769;SDS011;36740;48.698;11.472;2024-03-17T04:20:12;7.20;;;5.20;;
50769;SDS011;36740;48.698;11.472;2024-03-17T04:22:59;6.22;;;4.55;;
50769;SDS011;36740;48.698;11.472;2024-03-17T04:25:45;9.80;;;6.40;;
50769;SDS011;36740;48.698;11.472;2024-03-17T04:28:30;8.02;;;5.72;;
50769;SDS011;36740;48.698;11.472;2024-03-17T04:31:16;10.30;;;6.82;;
50769;SDS011;36740;48.698;11.472;2024-03-17T04:34:03;9.65;;;6.28;;
50769;SDS011;36740;48.698;11.472;2024-03-17T04:36:48;10.20;;;6.25;;
50769;SDS011;36740;48.698;11.472;2024-03-17T04:39:35;14.48;;;6.70;;
50769;SDS011;36740;48.698;11.472;2024-03-17T04:42:23;7.40;;;5.30;;
50769;SDS011;36740;48.698;11.472;2024-03-17T04:45:10;12.50;;;5.07;;
50769;SDS011;36740;48.698;11.472;2024-03-17T04:47:55;7.32;;;5.15;;
50769;SDS011;36740;48.698;11.472;2024-03-17T04:50:41;8.27;;;5.40;;
50769;SDS011;36740;48.698;11.472;2024-03-17T04:53:27;10.77;;;6.43;;
50769;SDS011;36740;48.698;11.472;2024-03-17T04:56:14;9.75;;;6.60;;
50769;SDS011;36740;48.698;11.472;2024-03-17T04:59:00;11.40;;;7.57;;
50769;SDS011;36740;48.698;11.472;2024-03-17T05:01:46;8.25;;;6.35;;
50769;SDS011;36740;48.698;11.472;2024-03-17T05:04:31;11.75;;;7.03;;
50769;SDS011;36740;48.698;11.472;2024-03-17T05:07:17;9.75;;;6.15;;
50769;SDS011;36740;48.698;11.472;2024-03-17T05:10:03;10.00;;;6.15;;
50769;SDS011;36740;48.698;11.472;2024-03-17T05:12:51;8.75;;;6.25;;
50769;SDS011;36740;48.698;11.472;2024-03-17T05:15:36;11.75;;;7.78;;
50769;SDS011;36740;48.698;11.472;2024-03-17T05:18:23;7.88;;;5.88;;
50769;SDS011;36740;48.698;11.472;2024-03-17T05:21:11;14.73;;;8.27;;
50769;SDS011;36740;48.698;11.472;2024-03-17T05:23:57;9.52;;;6.78;;
50769;SDS011;36740;48.698;11.472;2024-03-17T05:26:43;7.78;;;5.80;;
50769;SDS011;36740;48.698;11.472;2024-03-17T05:29:29;9.38;;;6.35;;
50769;SDS011;36740;48.698;11.472;2024-03-17T05:32:14;8.07;;;6.60;;
50769;SDS011;36740;48.698;11.472;2024-03-17T05:35:00;10.32;;;6.90;;
50769;SDS011;36740;48.698;11.472;2024-03-17T05:37:46;10.95;;;6.22;;
50769;SDS011;36740;48.698;11.472;2024-03-17T05:40:34;7.82;;;5.65;;
50769;SDS011;36740;48.698;11.472;2024-03-17T05:43:20;11.35;;;7.18;;
50769;SDS011;36740;48.698;11.472;2024-03-17T05:46:07;9.77;;;6.68;;
50769;SDS011;36740;48.698;11.472;2024-03-17T05:48:55;7.57;;;5.57;;
50769;SDS011;36740;48.698;11.472;2024-03-17T05:51:40;13.52;;;6.78;;
50769;SDS011;36740;48.698;11.472;2024-03-17T05:54:26;8.55;;;5.40;;
50769;SDS011;36740;48.698;11.472;2024-03-17T05:57:12;12.63;;;7.30;;
50769;SDS011;36740;48.698;11.472;2024-03-17T05:59:59;7.47;;;5.65;;
50769;SDS011;36740;48.698;11.472;2024-03-17T06:02:45;10.95;;;6.20;;
50769;SDS011;36740;48.698;11.472;2024-03-17T06:05:32;10.57;;;7.65;;
50769;SDS011;36740;48.698;11.472;2024-03-17T06:08:26;15.35;;;13.23;;
50769;SDS011;36740;48.698;11.472;2024-03-17T06:11:11;16.45;;;10.73;;
50769;SDS011;36740;48.698;11.472;2024-03-17T06:13:57;29.23;;;24.10;;
50769;SDS011;36740;48.698;11.472;2024-03-17T06:16:46;36.15;;;30.05;;
50769;SDS011;36740;48.698;11.472;2024-03-17T06:19:31;16.35;;;12.30;;
50769;SDS011;36740;48.698;11.472;2024-03-17T06:22:17;12.25;;;7.55;;
50769;SDS011;36740;48.698;11.472;2024-03-17T06:25:03;12.02;;;6.68;;
50769;SDS011;36740;48.698;11.472;2024-03-17T06:27:53;10.10;;;6.50;;
50769;SDS011;36740;48.698;11.472;2024-03-17T06:30:42;10.27;;;6.55;;
50769;SDS011;36740;48.698;11.472;2024-03-17T06:33:28;13.18;;;8.25;;
50769;SDS011;36740;48.698;11.472;2024-03-17T06:36:14;9.05;;;7.20;;
50769;SDS011;36740;48.698;11.472;2024-03-17T06:39:00;261.70;;;43.33;;
50769;SDS011;36740;48.698;11.472;2024-03-17T06:41:46;119.75;;;21.95;;
50769;SDS011;36740;48.698;11.472;2024-03-17T06:44:32;12.13;;;8.10;;
50769;SDS011;36740;48.698;11.472;2024-03-17T06:47:19;16.58;;;7.82;;
50769;SDS011;36740;48.698;11.472;2024-03-17T06:50:08;41.58;;;9.45;;
50769;SDS011;36740;48.698;11.472;2024-03-17T06:52:55;30.95;;;9.85;;
50769;SDS011;36740;48.698;11.472;2024-03-17T06:55:42;54.10;;;10.30;;
50769;SDS011;36740;48.698;11.472;2024-03-17T06:58:27;21.27;;;8.20;;
50769;SDS011;36740;48.698;11.472;2024-03-17T07:01:15;26.95;;;9.02;;
50769;SDS011;36740;48.698;11.472;2024-03-17T07:04:00;45.67;;;10.77;;
50769;SDS011;36740;48.698;11.472;2024-03-17T07:06:46;12.60;;;8.45;;
50769;SDS011;36740;48.698;11.472;2024-03-17T07:09:32;26.77;;;10.20;;
50769;SDS011;36740;48.698;11.472;2024-03-17T07:12:20;23.38;;;9.90;;
50769;SDS011;36740;48.698;11.472;2024-03-17T07:15:06;18.95;;;11.57;;
50769;SDS011;36740;48.698;11.472;2024-03-17T07:17:52;13.35;;;8.68;;
50769;SDS011;36740;48.698;11.472;2024-03-17T07:20:38;21.95;;;11.82;;
50769;SDS011;36740;48.698;11.472;2024-03-17T07:23:25;16.13;;;10.50;;
50769;SDS011;36740;48.698;11.472;2024-03-17T07:26:11;18.42;;;10.25;;
50769;SDS011;36740;48.698;11.472;2024-03-17T07:28:57;14.57;;;10.27;;
50769;SDS011;36740;48.698;11.472;2024-03-17T07:31:43;18.90;;;12.05;;
50769;SDS011;36740;48.698;11.472;2024-03-17T07:34:30;15.40;;;13.80;;
50769;SDS011;36740;48.698;11.472;2024-03-17T07:37:17;16.40;;;12.10;;
50769;SDS011;36740;48.698;11.472;2024-03-17T07:40:03;17.52;;;11.65;;
50769;SDS011;36740;48.698;11.472;2024-03-17T07:42:52;21.50;;;13.23;;
50769;SDS011;36740;48.698;11.472;2024-03-17T07:45:38;21.77;;;14.55;;
50769;SDS011;36740;48.698;11.472;2024-03-17T07:48:24;16.55;;;11.13;;
50769;SDS011;36740;48.698;11.472;2024-03-17T07:51:13;15.18;;;11.55;;
50769;SDS011;36740;48.698;11.472;2024-03-17T07:57:11;18.20;;;10.10;;
50769;SDS011;36740;48.698;11.472;2024-03-17T07:59:57;14.45;;;10.48;;
50769;SDS011;36740;48.698;11.472;2024-03-17T08:02:46;10.57;;;9.35;;
50769;SDS011;36740;48.698;11.472;2024-03-17T08:05:32;12.88;;;8.63;;
50769;SDS011;36740;48.698;11.472;2024-03-17T08:08:18;17.73;;;10.40;;
50769;SDS011;36740;48.698;11.472;2024-03-17T08:10:45;12.32;;;9.48;;
50769;SDS011;36740;48.698;11.472;2024-03-17T08:13:13;19.13;;;13.13;;
50769;SDS011;36740;48.698;11.472;2024-03-17T08:15:42;18.15;;;12.70;;
50769;SDS011;36740;48.698;11.472;2024-03-17T08:18:08;20.13;;;12.20;;
50769;SDS011;36740;48.698;11.472;2024-03-17T08:20:40;18.20;;;15.15;;
50769;SDS011;36740;48.698;11.472;2024-03-17T08:23:11;15.13;;;12.25;;
50769;SDS011;36740;48.698;11.472;2024-03-17T08:25:37;18.70;;;11.23;;
50769;SDS011;36740;48.698;11.472;2024-03-17T08:28:03;12.23;;;8.93;;
50769;SDS011;36740;48.698;11.472;2024-03-17T08:30:29;20.17;;;13.00;;
50769;SDS011;36740;48.698;11.472;2024-03-17T08:32:57;19.10;;;11.82;;
50769;SDS011;36740;48.698;11.472;2024-03-17T08:35:23;16.98;;;13.05;;
50769;SDS011;36740;48.698;11.472;2024-03-17T08:37:49;20.27;;;13.52;;
50769;SDS011;36740;48.698;11.472;2024-03-17T08:40:16;21.50;;;13.82;;
50769;SDS011;36740;48.698;11.472;2024-03-17T08:42:41;19.83;;;13.95;;
50769;SDS011;36740;48.698;11.472;2024-03-17T08:45:07;19.23;;;14.27;;
50769;SDS011;36740;48.698;11.472;2024-03-17T08:47:33;19.00;;;14.90;;
50769;SDS011;36740;48.698;11.472;2024-03-17T08:49:58;17.17;;;13.90;;
50769;SDS011;36740;48.698;11.472;2024-03-17T08:52:29;16.13;;;11.88;;
50769;SDS011;36740;48.698;11.472;2024-03-17T08:54:59;18.17;;;13.25;;
50769;SDS011;36740;48.698;11.472;2024-03-17T08:57:25;21.33;;;14.20;;
50769;SDS011;36740;48.698;11.472;2024-03-17T08:59:52;17.83;;;11.95;;
50769;SDS011;36740;48.698;11.472;2024-03-17T09:02:18;16.70;;;11.57;;
50769;SDS011;36740;48.698;11.472;2024-03-17T09:04:47;18.52;;;12.80;;
50769;SDS011;36740;48.698;11.472;2024-03-17T09:07:15;22.85;;;15.52;;
50769;SDS011;36740;48.698;11.472;2024-03-17T09:09:41;20.40;;;15.40;;
50769;SDS011;36740;48.698;11.472;2024-03-17T09:12:10;17.35;;;12.25;;
50769;SDS011;36740;48.698;11.472;2024-03-17T09:14:35;16.92;;;13.65;;
50769;SDS011;36740;48.698;11.472;2024-03-17T09:17:04;20.48;;;13.60;;
50769;SDS011;36740;48.698;11.472;2024-03-17T09:19:50;16.35;;;11.15;;
50769;SDS011;36740;48.698;11.472;2024-03-17T09:22:31;17.73;;;12.63;;
50769;SDS011;36740;48.698;11.472;2024-03-17T09:25:12;19.20;;;12.07;;
50769;SDS011;36740;48.698;11.472;2024-03-17T09:28:01;15.20;;;11.93;;
50769;SDS011;36740;48.698;11.472;2024-03-17T09:33:53;13.35;;;10.85;;
50769;SDS011;36740;48.698;11.472;2024-03-17T09:36:30;16.83;;;11.60;;
50769;SDS011;36740;48.698;11.472;2024-03-17T09:39:17;18.42;;;10.85;;
50769;SDS011;36740;48.698;11.472;2024-03-17T09:42:00;17.45;;;11.77;;
50769;SDS011;36740;48.698;11.472;2024-03-17T09:44:44;15.55;;;11.27;;
50769;SDS011;36740;48.698;11.472;2024-03-17T09:47:44;16.10;;;10.05;;
50769;SDS011;36740;48.698;11.472;2024-03-17T09:50:41;22.70;;;10.63;;
50769;SDS011;36740;48.698;11.472;2024-03-17T09:53:14;17.58;;;12.25;;
50769;SDS011;36740;48.698;11.472;2024-03-17T09:55:54;15.88;;;10.07;;
50769;SDS011;36740;48.698;11.472;2024-03-17T09:58:30;11.30;;;8.90;;
50769;SDS011;36740;48.698;11.472;2024-03-17T10:01:12;12.35;;;8.15;;
50769;SDS011;36740;48.698;11.472;2024-03-17T10:10:42;16.58;;;8.90;;
50769;SDS011;36740;48.698;11.472;2024-03-17T10:19:45;11.65;;;6.72;;
50769;SDS011;36740;48.698;11.472;2024-03-17T10:22:28;12.48;;;6.70;;
50769;SDS011;36740;48.698;11.472;2024-03-17T10:30:40;9.75;;;6.63;;
50769;SDS011;36740;48.698;11.472;2024-03-17T10:33:07;12.18;;;8.65;;
50769;SDS011;36740;48.698;11.472;2024-03-17T10:38:12;12.95;;;6.40;;
50769;SDS011;36740;48.698;11.472;2024-03-17T10:40:38;9.50;;;6.22;;
50769;SDS011;36740;48.698;11.472;2024-03-17T10:43:05;10.50;;;5.22;;
50769;SDS011;36740;48.698;11.472;2024-03-17T10:45:32;12.18;;;6.57;;
50769;SDS011;36740;48.698;11.472;2024-03-17T10:48:06;8.40;;;5.38;;
50769;SDS011;36740;48.698;11.472;2024-03-17T10:50:35;8.57;;;5.13;;
50769;SDS011;36740;48.698;11.472;2024-03-17T10:53:06;10.90;;;5.00;;
50769;SDS011;36740;48.698;11.472;2024-03-17T10:55:45;9.40;;;5.30;;
50769;SDS011;36740;48.698;11.472;2024-03-17T10:58:34;7.47;;;5.43;;
50769;SDS011;36740;48.698;11.472;2024-03-17T11:01:11;8.70;;;5.55;;
50769;SDS011;36740;48.698;11.472;2024-03-17T11:03:39;13.30;;;5.95;;
50769;SDS011;36740;48.698;11.472;2024-03-17T11:06:08;13.90;;;5.43;;
50769;SDS011;36740;48.698;11.472;2024-03-17T11:11:01;8.70;;;4.75;;
50769;SDS011;36740;48.698;11.472;2024-03-17T11:13:31;8.98;;;4.65;;
50769;SDS011;36740;48.698;11.472;2024-03-17T11:15:57;9.50;;;6.03;;
50769;SDS011;36740;48.698;11.472;2024-03-17T11:20:56;5.60;;;4.10;;
50769;SDS011;36740;48.698;11.472;2024-03-17T11:23:43;4.82;;;3.90;;
50769;SDS011;36740;48.698;11.472;2024-03-17T11:26:08;7.72;;;5.10;;
50769;SDS011;36740;48.698;11.472;2024-03-17T11:28:44;7.35;;;4.47;;
50769;SDS011;36740;48.698;11.472;2024-03-17T11:34:27;8.27;;;4.22;;
50769;SDS011;36740;48.698;11.472;2024-03-17T11:37:01;9.10;;;4.53;;
50769;SDS011;36740;48.698;11.472;2024-03-17T11:42:22;7.97;;;5.15;;
50769;SDS011;36740;48.698;11.472;2024-03-17T11:44:56;6.65;;;4.85;;
50769;SDS011;36740;48.698;11.472;2024-03-17T11:47:35;6.75;;;5.15;;
50769;SDS011;36740;48.698;11.472;2024-03-17T11:50:09;8.55;;;4.78;;
50769;SDS011;36740;48.698;11.472;2024-03-17T11:52:56;6.50;;;3.95;;
50769;SDS011;36740;48.698;11.472;2024-03-17T12:29:57;5.32;;;3.42;;
50769;SDS011;36740;48.698;11.472;2024-03-17T12:33:10;9.10;;;4.82;;
50769;SDS011;36740;48.698;11.472;2024-03-17T12:36:04;6.07;;;3.40;;
50769;SDS011;36740;48.698;11.472;2024-03-17T12:46:07;5.38;;;3.75;;
50769;SDS011;36740;48.698;11.472;2024-03-17T12:52:15;6.30;;;3.75;;
50769;SDS011;36740;48.698;11.472;2024-03-17T12:58:16;4.03;;;3.60;;
50769;SDS011;36740;48.698;11.472;2024-03-17T13:23:59;6.55;;;4.07;;
50769;SDS011;36740;48.698;11.472;2024-03-17T13:26:50;6.45;;;3.33;;
50769;SDS011;36740;48.698;11.472;2024-03-17T13:29:28;4.75;;;2.72;;
50769;SDS011;36740;48.698;11.472;2024-03-17T13:31:53;9.05;;;3.85;;
50769;SDS011;36740;48.698;11.472;2024-03-17T13:34:18;6.30;;;3.85;;
50769;SDS011;36740;48.698;11.472;2024-03-17T13:36:44;6.57;;;3.65;;
50769;SDS011;36740;48.698;11.472;2024-03-17T13:39:10;4.68;;;3.60;;
50769;SDS011;36740;48.698;11.472;2024-03-17T13:41:36;4.95;;;3.30;;
50769;SDS011;36740;48.698;11.472;2024-03-17T13:44:01;7.50;;;3.53;;
50769;SDS011;36740;48.698;11.472;2024-03-17T13:46:27;7.45;;;3.90;;
50769;SDS011;36740;48.698;11.472;2024-03-17T13:48:52;7.50;;;3.42;;
50769;SDS011;36740;48.698;11.472;2024-03-17T13:51:18;8.07;;;3.85;;
50769;SDS011;36740;48.698;11.472;2024-03-17T13:53:45;4.35;;;3.58;;
50769;SDS011;36740;48.698;11.472;2024-03-17T13:56:11;3.80;;;2.72;;
50769;SDS011;36740;48.698;11.472;2024-03-17T13:58:38;5.38;;;3.88;;
50769;SDS011;36740;48.698;11.472;2024-03-17T14:01:06;4.35;;;3.03;;
50769;SDS011;36740;48.698;11.472;2024-03-17T14:03:33;4.93;;;3.47;;
50769;SDS011;36740;48.698;11.472;2024-03-17T14:05:58;4.65;;;2.83;;
50769;SDS011;36740;48.698;11.472;2024-03-17T14:08:23;6.07;;;2.65;;
50769;SDS011;36740;48.698;11.472;2024-03-17T14:10:50;4.10;;;2.65;;
50769;SDS011;36740;48.698;11.472;2024-03-17T14:13:16;6.28;;;3.55;;
50769;SDS011;36740;48.698;11.472;2024-03-17T14:15:55;4.38;;;2.92;;
50769;SDS011;36740;48.698;11.472;2024-03-17T14:18:21;4.53;;;3.28;;
50769;SDS011;36740;48.698;11.472;2024-03-17T14:20:47;7.30;;;4.15;;
50769;SDS011;36740;48.698;11.472;2024-03-17T14:23:13;6.38;;;3.15;;
50769;SDS011;36740;48.698;11.472;2024-03-17T14:25:38;6.65;;;2.90;;
50769;SDS011;36740;48.698;11.472;2024-03-17T14:28:04;4.70;;;3.03;;
50769;SDS011;36740;48.698;11.472;2024-03-17T14:30:31;4.78;;;3.58;;
50769;SDS011;36740;48.698;11.472;2024-03-17T14:33:01;5.93;;;3.17;;
50769;SDS011;36740;48.698;11.472;2024-03-17T14:35:29;5.75;;;2.63;;
50769;SDS011;36740;48.698;11.472;2024-03-17T14:37:57;4.22;;;2.75;;
50769;SDS011;36740;48.698;11.472;2024-03-17T14:40:25;3.58;;;2.80;;
50769;SDS011;36740;48.698;11.472;2024-03-17T14:42:54;5.00;;;3.15;;
50769;SDS011;36740;48.698;11.472;2024-03-17T14:45:22;10.75;;;4.03;;
50769;SDS011;36740;48.698;11.472;2024-03-17T14:47:52;9.38;;;3.88;;
50769;SDS011;36740;48.698;11.472;2024-03-17T14:50:17;4.95;;;2.92;;
50769;SDS011;36740;48.698;11.472;2024-03-17T14:52:46;5.18;;;3.58;;
50769;SDS011;36740;48.698;11.472;2024-03-17T14:55:13;9.00;;;3.72;;
50769;SDS011;36740;48.698;11.472;2024-03-17T14:57:41;4.55;;;3.42;;
50769;SDS011;36740;48.698;11.472;2024-03-17T15:00:58;5.03;;;3.33;;
50769;SDS011;36740;48.698;11.472;2024-03-17T15:03:55;5.57;;;2.70;;
50769;SDS011;36740;48.698;11.472;2024-03-17T15:17:34;6.70;;;3.65;;
50769;SDS011;36740;48.698;11.472;2024-03-17T15:28:06;10.05;;;3.20;;
50769;SDS011;36740;48.698;11.472;2024-03-17T15:34:58;5.90;;;4.05;;
50769;SDS011;36740;48.698;11.472;2024-03-17T15:38:03;4.88;;;3.28;;
50769;SDS011;36740;48.698;11.472;2024-03-17T15:40:53;5.53;;;3.30;;
50769;SDS011;36740;48.698;11.472;2024-03-17T15:43:39;8.75;;;3.63;;
50769;SDS011;36740;48.698;11.472;2024-03-17T15:46:59;6.57;;;3.38;;
50769;SDS011;36740;48.698;11.472;2024-03-17T15:53:16;5.40;;;2.53;;
50769;SDS011;36740;48.698;11.472;2024-03-17T16:14:45;7.88;;;3.22;;
50769;SDS011;36740;48.698;11.472;2024-03-17T16:17:20;7.78;;;3.38;;
50769;SDS011;36740;48.698;11.472;2024-03-17T16:20:02;8.02;;;3.40;;
50769;SDS011;36740;48.698;11.472;2024-03-17T16:27:17;5.05;;;2.65;;
50769;SDS011;36740;48.698;11.472;2024-03-17T16:30:31;2.95;;;2.13;;
50769;SDS011;36740;48.698;11.472;2024-03-17T16:37:55;7.60;;;3.60;;
50769;SDS011;36740;48.698;11.472;2024-03-17T16:40:56;6.43;;;3.50;;
50769;SDS011;36740;48.698;11.472;2024-03-17T17:05:18;3.13;;;2.42;;
50769;SDS011;36740;48.698;11.472;2024-03-17T17:14:20;4.25;;;3.30;;
50769;SDS011;36740;48.698;11.472;2024-03-17T17:17:36;6.90;;;2.85;;
50769;SDS011;36740;48.698;11.472;2024-03-17T17:35:11;6.78;;;3.63;;
50769;SDS011;36740;48.698;11.472;2024-03-17T17:45:04;11.13;;;4.80;;
50769;SDS011;36740;48.698;11.472;2024-03-17T17:48:30;7.50;;;4.30;;
50769;SDS011;36740;48.698;11.472;2024-03-17T17:55:50;6.05;;;4.25;;
50769;SDS011;36740;48.698;11.472;2024-03-17T18:11:22;9.52;;;5.15;;
50769;SDS011;36740;48.698;11.472;2024-03-17T18:39:56;7.80;;;4.82;;
50769;SDS011;36740;48.698;11.472;2024-03-17T18:42:49;10.50;;;5.80;;
50769;SDS011;36740;48.698;11.472;2024-03-17T18:45:25;5.15;;;4.35;;
50769;SDS011;36740;48.698;11.472;2024-03-17T18:48:55;6.18;;;4.15;;
50769;SDS011;36740;48.698;11.472;2024-03-17T18:51:34;11.02;;;6.45;;
50769;SDS011;36740;48.698;11.472;2024-03-17T18:54:00;7.97;;;5.28;;
50769;SDS011;36740;48.698;11.472;2024-03-17T18:59:27;10.50;;;5.45;;
50769;SDS011;36740;48.698;11.472;2024-03-17T19:09:57;5.05;;;4.55;;
50769;SDS011;36740;48.698;11.472;2024-03-17T19:13:58;5.90;;;3.35;;
50769;SDS011;36740;48.698;11.472;2024-03-17T19:27:54;5.60;;;3.75;;
50769;SDS011;36740;48.698;11.472;2024-03-17T19:35:00;6.22;;;4.00;;
50769;SDS011;36740;48.698;11.472;2024-03-17T19:42:05;11.18;;;4.82;;
50769;SDS011;36740;48.698;11.472;2024-03-17T19:44:52;7.45;;;4.65;;
50769;SDS011;36740;48.698;11.472;2024-03-17T19:52:20;7.95;;;5.55;;
50769;SDS011;36740;48.698;11.472;2024-03-17T20:02:00;10.20;;;5.60;;
50769;SDS011;36740;48.698;11.472;2024-03-17T20:08:53;8.68;;;5.50;;
50769;SDS011;36740;48.698;11.472;2024-03-17T20:14:30;8.13;;;4.97;;
50769;SDS011;36740;48.698;11.472;2024-03-17T20:17:25;8.43;;;4.85;;
50769;SDS011;36740;48.698;11.472;2024-03-17T20:29:01;8.57;;;5.97;;
50769;SDS011;36740;48.698;11.472;2024-03-17T20:32:26;9.77;;;5.57;;
50769;SDS011;36740;48.698;11.472;2024-03-17T20:38:55;7.05;;;4.82;;
50769;SDS011;36740;48.698;11.472;2024-03-17T20:42:25;8.27;;;6.18;;
50769;SDS011;36740;48.698;11.472;2024-03-17T21:04:13;8.52;;;6.43;;
50769;SDS011;36740;48.698;11.472;2024-03-17T21:06:52;10.02;;;6.65;;
50769;SDS011;36740;48.698;11.472;2024-03-17T21:09:17;9.40;;;6.30;;
50769;SDS011;36740;48.698;11.472;2024-03-17T21:11:43;8.85;;;5.82;;
50769;SDS011;36740;48.698;11.472;2024-03-17T21:14:10;10.82;;;5.65;;
50769;SDS011;36740;48.698;11.472;2024-03-17T21:16:35;8.73;;;6.15;;
50769;SDS011;36740;48.698;11.472;2024-03-17T21:19:00;8.85;;;6.47;;
50769;SDS011;36740;48.698;11.472;2024-03-17T21:21:26;7.93;;;5.47;;
50769;SDS011;36740;48.698;11.472;2024-03-17T21:23:51;9.30;;;5.03;;
50769;SDS011;36740;48.698;11.472;2024-03-17T21:26:20;8.02;;;6.22;;
50769;SDS011;36740;48.698;11.472;2024-03-17T21:28:45;15.32;;;6.97;;
50769;SDS011;36740;48.698;11.472;2024-03-17T21:31:11;8.25;;;5.40;;